Impacts METAR Board INFO
IDs:

KMCO - Orlando Intl, FL, US

Updated at: 2303 UTC 21 Feb 2018
Potential Impact None Slight Moderate High
Time21/11Z 21/12Z 21/13Z 21/14Z 21/15Z 21/16Z 21/17Z 21/18Z 21/19Z 21/20Z 21/21Z 21/22Z 21/23Z
VIS 8 10 10 10 10 10 10 10 10 10 10
CIG -- -- -- -- -- -- -- -- -- -- --
CoverFEWFEWSCTSCTSCTSCTSCTSCTFEWFEWFEW
FltCatVFRVFRVFRVFRVFRVFRVFRVFRVFRVFRVFR
WX----------------------
WDir80100110110901001109011010090
WSpd 5 9 11 12 13 9 11 12 13 13 11
WGst -- -- 18 -- -- -- -- -- -- -- --
Raw hourly METARs


KMCO 211253Z 08005KT 8SM FEW010 21/21 A3040 RMK AO2 SLP292 T02110211
KMCO 211353Z 10009KT 10SM FEW008 23/22 A3041 RMK AO2 SLP295 T02330222
KMCO 211453Z 11011G18KT 10SM SCT015 26/20 A3042 RMK AO2 SLP298 T02560200 51009
KMCO 211553Z 11012KT 10SM SCT033 27/18 A3042 RMK AO2 SLP298 T02720183
KMCO 211653Z 09013KT 10SM SCT041 28/18 A3040 RMK AO2 SLP292 T02780178
KMCO 211753Z 10009KT 10SM SCT046 28/18 A3037 RMK AO2 SLP283 T02780183 10283 20194 58015
KMCO 211853Z 11011KT 10SM SCT049 29/18 A3035 RMK AO2 SLP276 T02890178
KMCO 211953Z 09012KT 10SM SCT049 28/17 A3034 RMK AO2 SLP271 T02780167
KMCO 212053Z 11013KT 10SM FEW050 28/17 A3033 RMK AO2 SLP268 T02830172 56015
KMCO 212153Z 10013KT 10SM FEW050 27/18 A3033 RMK AO2 SLP270 T02720178
KMCO 212253Z 09011KT 10SM FEW050 26/18 A3035 RMK AO2 SLP275 T02560178